TAPATRPG

Guest
Details From TAPA - Antigua - V C Bird Intl
To TRPG - Montserrat - John A Osborne
Flight Number -
Tags generated
Created
Modified
Stats Distance 31 nm / 57 km
Max Altitude 200 ft / 61 m
Waypoints 3
Social Downloads 1
Likes 0
Share VATSIM

Download

Looking for another format? Having issues loading an existing format? Contact us
Advertisement - Login to hide

Notes

Basic altitude profile: - Ascent Rate: 2500ft/min - Ascent Speed: 250kts - Cruise Altitude: 210ft - Cruise Speed: 420kts - Descent Rate: 1500ft/min - Descent Speed: 250kts Options: - Use NATs: yes - Use PACOTS: yes - Use low airways: yes - Use high airways: yes

Route

TAPA ANU TRPG

ID Type Via Altitude Latitude Longitude Leg Dist Tot Dist Heading (true) Name
O TAPA APT - 0 ft / 0 m 17.13674˚ -61.79266˚ - 0 nm - Antigua - V C Bird Intl
ANU NDB - 200 ft / 61 m 17.12588˚ -61.80017˚ 0 nm 0 nm 213° / 213° V C BIRD NDB
O TRPG APT - 0 ft / 0 m 16.79134˚ -62.19333˚ 30 nm 31 nm 228° / 228° Montserrat - John A Osborne

Altitude Profile

Advertisement - Login to hide

TAPA

Details ICAO TAPA (ANU)
Name Antigua - V C Bird Intl
Region Antigua and Barbuda
Timezone America/Antigua (UTC-4.0)
Stats Elevation 62 ft / 19 m (AMSL)
Location 17.136737° -61.792662°
Runways 1
Magnetic Variation 14.767° W

METAR

TAPA 161300Z 07010KT 9999 VCSH BKN018 27/21 Q1018 NOSIG

Decode

TAF

Not found

Departure Runways

ID Width Length Bearing (true) Bearing (mag) Surface Threshold Offset Overrun Length
07 148 ft / 45 m 9,022 ft / 2,750 m 58.28° 73.05° Asphalt 656 ft / 200 m 0 ft / 0 m
25 148 ft / 45 m 9,022 ft / 2,750 m 238.29° 253.06° Asphalt 0 ft / 0 m 0 ft / 0 m

TRPG

Details ICAO TRPG (MNI)
Name Montserrat - John A Osborne
Region UK (Montserrat)
Timezone America/Montserrat (UTC-4.0)
Stats Elevation 551 ft / 168 m (AMSL)
Location 16.791335° -62.193328°
Runways 1
Magnetic Variation 14.630° W

METAR

TRPG 161300Z 10011KT 9999 BKN020 26/23 Q1018

Decode

TAF

Not found

Destination Runways

ID Width Length Bearing (true) Bearing (mag) Surface Threshold Offset Overrun Length
10 66 ft / 20 m 1,954 ft / 595 m 90.00° 104.63° Asphalt 98 ft / 30 m 0 ft / 0 m
28 66 ft / 20 m 1,954 ft / 595 m 270.00° 284.63° Asphalt 98 ft / 30 m 0 ft / 0 m

Popular Alternatives